createdAt,value
2022-08-09T00:08:33.187Z,60.14
2022-08-09T00:20:34.158Z,59.79
2022-08-09T00:32:33.746Z,59.19
2022-08-09T00:44:34.635Z,59.96
2022-08-09T00:56:34.669Z,60.06
2022-08-09T01:08:35.083Z,60.72
2022-08-09T01:20:35.557Z,62.04
2022-08-09T01:32:36.113Z,62.11
2022-08-09T01:44:36.476Z,61.95
2022-08-09T01:56:36.919Z,62.76
2022-08-09T02:08:57.119Z,61.62
2022-08-09T02:20:37.807Z,64.35
2022-08-09T02:32:38.290Z,64.22
2022-08-09T02:44:38.734Z,61.70
2022-08-09T02:56:39.167Z,63.28
2022-08-09T03:08:39.641Z,65.08
2022-08-09T03:20:40.078Z,62.12
2022-08-09T03:32:40.557Z,62.06
2022-08-09T03:44:40.982Z,60.89
2022-08-09T03:56:41.731Z,61.34
2022-08-09T04:08:41.904Z,64.37
2022-08-09T04:20:42.365Z,63.10
2022-08-09T04:32:42.894Z,64.88
2022-08-09T04:44:49.106Z,63.32
2022-08-09T04:56:43.743Z,64.24
2022-08-09T05:08:48.030Z,62.15
2022-08-09T05:20:44.744Z,64.97
2022-08-09T05:32:45.074Z,63.99
2022-08-09T05:44:45.536Z,63.13
2022-08-09T05:56:55.118Z,59.32
2022-08-09T06:08:52.579Z,56.48
2022-08-09T06:20:54.128Z,45.41
2022-08-09T06:33:00.900Z,44.80
2022-08-09T06:44:54.316Z,44.08
2022-08-09T06:56:48.278Z,42.83
2022-08-09T07:08:49.604Z,43.33
2022-08-09T07:20:49.200Z,42.94
2022-08-09T07:32:51.569Z,40.11
2022-08-09T07:44:52.347Z,39.73
2022-08-09T07:56:50.512Z,42.06
2022-08-09T08:09:04.023Z,41.58
2022-08-09T08:20:51.454Z,40.55
2022-08-09T08:32:53.918Z,39.34
2022-08-09T08:44:52.371Z,41.22
2022-08-09T08:56:52.828Z,40.46
2022-08-09T09:08:53.260Z,38.31
2022-08-09T09:20:53.686Z,41.16
2022-08-09T09:32:54.145Z,39.77
2022-08-09T09:44:54.653Z,38.37
2022-08-09T09:58:00.879Z,38.62
2022-08-09T10:08:57.575Z,36.91
2022-08-09T10:20:56.002Z,34.42
2022-08-09T10:32:56.537Z,37.33
2022-08-09T10:44:56.933Z,37.33
2022-08-09T10:56:57.360Z,37.48
2022-08-09T11:09:15.547Z,33.67
2022-08-09T11:20:58.307Z,35.87
2022-08-09T11:32:58.979Z,35.87
2022-08-09T11:44:59.189Z,35.35
2022-08-09T11:56:59.652Z,34.96
2022-08-09T12:09:01.140Z,34.34
2022-08-09T12:21:02.806Z,36.96
2022-08-09T12:33:01.037Z,34.86
2022-08-09T12:45:01.499Z,34.27
2022-08-09T12:57:01.952Z,33.22
2022-08-09T13:09:02.386Z,33.35
2022-08-09T13:22:34.171Z,31.54
2022-08-09T13:33:03.295Z,32.54
2022-08-09T13:45:03.787Z,30.05
2022-08-09T13:57:06.555Z,30.61
2022-08-09T14:09:05.041Z,27.57
2022-08-09T14:21:05.831Z,29.11
2022-08-09T14:33:11.195Z,27.82
2022-08-09T14:46:46.150Z,27.31
2022-08-09T14:57:06.526Z,24.39
2022-08-09T15:09:06.959Z,25.76
2022-08-09T15:22:00.682Z,27.22
2022-08-09T15:33:08.029Z,23.81
2022-08-09T15:45:08.342Z,25.68
2022-08-09T15:57:09.461Z,26.90
2022-08-09T16:09:09.285Z,24.77
2022-08-09T16:21:09.708Z,26.05
2022-08-09T16:33:10.186Z,26.43
2022-08-09T16:45:10.638Z,26.22
2022-08-09T16:57:11.116Z,26.92
2022-08-09T17:09:45.708Z,26.70
2022-08-09T17:21:11.960Z,27.36
2022-08-09T17:33:22.228Z,26.06
2022-08-09T17:45:15.890Z,28.01
2022-08-09T17:57:20.786Z,30.13
2022-08-09T18:09:13.774Z,33.56
2022-08-09T18:21:23.151Z,34.25
2022-08-09T18:33:15.144Z,33.54
2022-08-09T18:45:21.456Z,39.59
2022-08-09T18:57:15.625Z,38.43
2022-08-09T19:09:20.528Z,38.67
2022-08-09T19:21:16.583Z,40.57
2022-08-09T19:33:19.391Z,39.77
2022-08-09T19:45:17.751Z,41.54
2022-08-09T19:57:17.949Z,41.11
2022-08-09T20:09:20.599Z,42.66
2022-08-09T20:21:18.838Z,44.19
2022-08-09T20:33:19.290Z,46.13
2022-08-09T20:45:59.668Z,45.98
2022-08-09T20:57:20.212Z,45.12
2022-08-09T21:09:32.700Z,50.57
2022-08-09T21:21:21.113Z,47.41
2022-08-09T21:33:21.536Z,50.52
2022-08-09T21:45:22.051Z,48.11
2022-08-09T21:57:36.847Z,48.89
2022-08-09T22:09:23.744Z,50.81
2022-08-09T22:21:24.157Z,50.80
2022-08-09T22:33:23.846Z,51.08
2022-08-09T22:48:16.237Z,52.37
2022-08-09T22:57:31.538Z,53.72
2022-08-09T23:09:25.195Z,54.52
2022-08-09T23:21:29.921Z,53.16
2022-08-09T23:33:26.106Z,53.24
2022-08-09T23:45:37.506Z,52.03
2022-08-09T23:57:27.008Z,52.47
